PWSweather.com
Personal Weather Stations
Station Observations
INORDPAS37
Bondues, BonduesFR 59910

BonduesBonduesFR 59910

Lat: 50.7, Lon: 3.09

Elevation: 66

Station Type: NetAtmo

Latest ConditionsUpdated 12:45:00 PM GMT+01:01 Friday, Jun 23, 2017
Currently Today's Max Today's Min Today's Average
Temperature 71.8°F22.1°C 71.8°F22.1°C 59.0°F15.0°C 64.0°F17.8°C
Dew Point 51.8°F11.0°C 52.3°F11.3°C 45.1°F7.3°C 48.4°F9.1°C
Winds 4.3 mph WSW6.9 kmh WSW 5.6 mph W9.0 kmh W - 3.1 mph 5.0 kmh
Wind Gusts -- 16.1 mph25.9 kmh - -
Humidity 52% 67% 52% 62%
Pressure 30.08 in1018.6 mb 30.08 in1018.6 mb 29.98 in1015.2 mb -
Hour Temp Dew Point Humidity Winds Wind Gusts Pressure Precip Precip Rate Daily Precip Total
12:45 PM 71.8°F22.1°C 51.8°F11.0°C 52% 4.3 mph WSW6.9 kmh WSW -- 30.08 in1018.6 mb 0.00 in0.0 mm 0.00 in0.0 mm 0.00 in0.0 mm
12:24 PM 71.2°F21.8°C 51.3°F10.7°C 52% 4.9 mph WSW7.9 kmh WSW 11.9 mph19.2 kmh 30.08 in1018.6 mb 0.00 in0.0 mm 0.00 in0.0 mm 0.00 in0.0 mm
12:05 PM 71.4°F21.9°C 52.0°F11.1°C 53% 4.9 mph WSW7.9 kmh WSW 9.4 mph15.1 kmh 30.08 in1018.6 mb 0.00 in0.0 mm 0.00 in0.0 mm 0.00 in0.0 mm
11:44 AM 70.3°F21.3°C 51.3°F10.7°C 54% 4.3 mph W6.9 kmh W -- 30.08 in1018.6 mb 0.00 in0.0 mm 0.00 in0.0 mm 0.00 in0.0 mm
11:25 AM 69.6°F20.9°C 51.1°F10.6°C 55% 4.3 mph W6.9 kmh W 16.1 mph25.9 kmh 30.08 in1018.6 mb 0.00 in0.0 mm 0.00 in0.0 mm 0.00 in0.0 mm
10:58 AM 68.0°F20.0°C 50.0°F10.0°C 56% 4.3 mph WSW6.9 kmh WSW 8.7 mph14.0 kmh 30.08 in1018.6 mb 0.00 in0.0 mm 0.00 in0.0 mm 0.00 in0.0 mm
10:38 AM 67.6°F19.8°C 50.0°F10.0°C 57% 3.1 mph WSW5.0 kmh WSW -- 30.08 in1018.6 mb 0.00 in0.0 mm 0.00 in0.0 mm 0.00 in0.0 mm
10:18 AM 68.0°F20.0°C 50.4°F10.2°C 57% 4.9 mph WSW7.9 kmh WSW 11.2 mph18.0 kmh 30.07 in1018.3 mb 0.00 in0.0 mm 0.00 in0.0 mm 0.00 in0.0 mm
10:03 AM 68.7°F20.4°C 51.4°F10.8°C 58% 4.9 mph WSW7.9 kmh WSW 11.9 mph19.2 kmh 30.07 in1018.3 mb 0.00 in0.0 mm 0.00 in0.0 mm 0.00 in0.0 mm
09:43 AM 68.2°F20.1°C 50.9°F10.5°C 58% 3.7 mph WSW6.0 kmh WSW -- 30.06 in1017.9 mb 0.00 in0.0 mm 0.00 in0.0 mm 0.00 in0.0 mm
09:22 AM 67.5°F19.7°C 50.4°F10.2°C 58% 4.3 mph W6.9 kmh W 9.8 mph15.8 kmh 30.06 in1017.9 mb 0.00 in0.0 mm 0.00 in0.0 mm 0.00 in0.0 mm
09:03 AM 68.4°F20.2°C 51.1°F10.6°C 58% 5.6 mph W9.0 kmh W 12.5 mph20.1 kmh 30.05 in1017.6 mb 0.00 in0.0 mm 0.00 in0.0 mm 0.00 in0.0 mm
08:43 AM 68.7°F20.4°C 52.3°F11.3°C 60% 4.3 mph WSW6.9 kmh WSW -- 30.04 in1017.3 mb 0.00 in0.0 mm 0.00 in0.0 mm 0.00 in0.0 mm
08:23 AM 67.6°F19.8°C 52.2°F11.2°C 62% 3.8 mph W6.1 kmh W 9.8 mph15.8 kmh 30.04 in1017.3 mb 0.00 in0.0 mm 0.00 in0.0 mm 0.00 in0.0 mm
08:03 AM 66.7°F19.3°C 52.2°F11.2°C 64% 2.5 mph W4.0 kmh W 9.8 mph15.8 kmh 30.03 in1016.9 mb 0.00 in0.0 mm 0.00 in0.0 mm 0.00 in0.0 mm
07:42 AM 65.7°F18.7°C 51.4°F10.8°C 65% 3.1 mph W5.0 kmh W -- 30.03 in1016.9 mb 0.00 in0.0 mm 0.00 in0.0 mm 0.00 in0.0 mm
07:23 AM 63.9°F17.7°C 50.2°F10.1°C 66% 2.5 mph W4.0 kmh W 6.9 mph11.1 kmh 30.03 in1016.9 mb 0.00 in0.0 mm 0.00 in0.0 mm 0.00 in0.0 mm
07:02 AM 61.5°F16.4°C 48.4°F9.1°C 67% 1.8 mph WSW2.9 kmh WSW 4.3 mph6.9 kmh 30.02 in1016.6 mb 0.00 in0.0 mm 0.00 in0.0 mm 0.00 in0.0 mm
06:43 AM 61.0°F16.1°C 47.8°F8.8°C 67% 2.5 mph WSW4.0 kmh WSW -- 30.02 in1016.6 mb 0.00 in0.0 mm 0.00 in0.0 mm 0.00 in0.0 mm
06:22 AM 60.6°F15.9°C 47.5°F8.6°C 67% 2.5 mph WSW4.0 kmh WSW 5.6 mph9.0 kmh 30.02 in1016.6 mb 0.00 in0.0 mm 0.00 in0.0 mm 0.00 in0.0 mm
06:03 AM 60.3°F15.7°C 47.1°F8.4°C 67% 2.5 mph W4.0 kmh W 4.9 mph7.9 kmh 30.01 in1016.3 mb 0.00 in0.0 mm 0.00 in0.0 mm 0.00 in0.0 mm
05:42 AM 59.7°F15.4°C 46.2°F7.9°C 66% 3.1 mph WSW5.0 kmh WSW -- 30.01 in1016.3 mb 0.00 in0.0 mm 0.00 in0.0 mm 0.00 in0.0 mm
05:22 AM 59.5°F15.3°C 46.0°F7.8°C 66% 2.5 mph WSW4.0 kmh WSW 5.6 mph9.0 kmh 30.01 in1016.3 mb 0.00 in0.0 mm 0.00 in0.0 mm 0.00 in0.0 mm
05:03 AM 59.4°F15.2°C 45.9°F7.7°C 66% 1.8 mph WSW2.9 kmh WSW 4.3 mph6.9 kmh 30.00 in1015.9 mb 0.00 in0.0 mm 0.00 in0.0 mm 0.00 in0.0 mm
04:42 AM 59.0°F15.0°C 45.7°F7.6°C 66% 3.1 mph WSW5.0 kmh WSW -- 30.00 in1015.9 mb 0.00 in0.0 mm 0.00 in0.0 mm 0.00 in0.0 mm
04:23 AM 59.0°F15.0°C 45.1°F7.3°C 65% 2.5 mph WSW4.0 kmh WSW 8.7 mph14.0 kmh 30.00 in1015.9 mb 0.00 in0.0 mm 0.00 in0.0 mm 0.00 in0.0 mm
04:02 AM 59.2°F15.1°C 45.3°F7.4°C 65% 1.8 mph WSW2.9 kmh WSW 4.3 mph6.9 kmh 29.98 in1015.2 mb 0.00 in0.0 mm 0.00 in0.0 mm 0.00 in0.0 mm
03:42 AM 59.5°F15.3°C 45.7°F7.6°C 65% 2.5 mph WSW4.0 kmh WSW -- 29.99 in1015.6 mb 0.00 in0.0 mm 0.00 in0.0 mm 0.00 in0.0 mm
03:22 AM 60.3°F15.7°C 46.4°F8.0°C 65% 1.8 mph WSW2.9 kmh WSW 4.9 mph7.9 kmh 29.99 in1015.6 mb 0.00 in0.0 mm 0.00 in0.0 mm 0.00 in0.0 mm
03:02 AM 60.6°F15.9°C 46.4°F8.0°C 64% 2.5 mph W4.0 kmh W 6.9 mph11.1 kmh 29.99 in1015.6 mb 0.00 in0.0 mm 0.00 in0.0 mm 0.00 in0.0 mm
02:42 AM 60.8°F16.0°C 46.6°F8.1°C 64% 1.9 mph W3.1 kmh W -- 29.99 in1015.6 mb 0.00 in0.0 mm 0.00 in0.0 mm 0.00 in0.0 mm
02:22 AM 60.8°F16.0°C 46.0°F7.8°C 63% 1.8 mph WSW2.9 kmh WSW 4.9 mph7.9 kmh 29.99 in1015.6 mb 0.00 in0.0 mm 0.00 in0.0 mm 0.00 in0.0 mm
02:02 AM 61.0°F16.1°C 46.2°F7.9°C 63% 2.5 mph WSW4.0 kmh WSW 5.6 mph9.0 kmh 30.00 in1015.9 mb 0.00 in0.0 mm 0.00 in0.0 mm 0.00 in0.0 mm
01:42 AM 61.0°F16.1°C 46.2°F7.9°C 63% 2.5 mph WSW4.0 kmh WSW -- 29.99 in1015.6 mb 0.00 in0.0 mm 0.00 in0.0 mm 0.00 in0.0 mm
01:22 AM 61.0°F16.1°C 45.9°F7.7°C 62% 1.8 mph W2.9 kmh W 4.9 mph7.9 kmh 30.00 in1015.9 mb 0.00 in0.0 mm 0.00 in0.0 mm 0.00 in0.0 mm
01:02 AM 61.2°F16.2°C 46.0°F7.8°C 62% 2.5 mph W4.0 kmh W 4.9 mph7.9 kmh 30.00 in1015.9 mb 0.00 in0.0 mm 0.00 in0.0 mm 0.00 in0.0 mm
12:42 AM 61.3°F16.3°C 45.9°F7.7°C 61% 1.9 mph WSW3.1 kmh WSW -- 29.99 in1015.6 mb 0.00 in0.0 mm 0.00 in0.0 mm 0.00 in0.0 mm
12:22 AM 61.9°F16.6°C 46.2°F7.9°C 61% 1.8 mph WSW2.9 kmh WSW 4.3 mph6.9 kmh 29.98 in1015.2 mb 0.00 in0.0 mm 0.00 in0.0 mm 0.00 in0.0 mm
12:02 AM 62.4°F16.9°C 46.4°F8.0°C 60% 2.5 mph WSW4.0 kmh WSW 4.9 mph7.9 kmh 29.98 in1015.2 mb 0.00 in0.0 mm 0.00 in0.0 mm 0.00 in0.0 mm